createdAt,value
2023-05-02T00:02:41.913Z,100954.44
2023-05-02T00:06:47.164Z,100960.44
2023-05-02T00:10:50.446Z,100962.97
2023-05-02T00:14:53.869Z,100960.34
2023-05-02T00:18:56.727Z,100977.34
2023-05-02T00:23:00.998Z,100987.59
2023-05-02T00:27:04.194Z,100985.78
2023-05-02T00:31:07.219Z,100995.09
2023-05-02T00:35:10.869Z,101001.91
2023-05-02T00:39:15.171Z,100996.84
2023-05-02T00:43:18.185Z,100996.91
2023-05-02T00:47:21.405Z,100998.53
2023-05-02T00:51:24.472Z,101000.31
2023-05-02T00:55:28.753Z,101013.84
2023-05-02T00:59:32.078Z,101015.06
2023-05-02T01:03:41.341Z,101004.16
2023-05-02T01:07:48.876Z,101006.34
2023-05-02T01:11:58.041Z,101013.28
2023-05-02T01:16:02.331Z,101008.66
2023-05-02T01:20:07.604Z,101018.16
2023-05-02T01:24:13.450Z,101020.13
2023-05-02T01:28:22.776Z,101017.28
2023-05-02T01:32:28.314Z,101019.16
2023-05-02T01:36:32.686Z,101018.19
2023-05-02T01:40:36.686Z,101024.72
2023-05-02T01:44:39.780Z,101020.34
2023-05-02T01:48:46.713Z,101023.50
2023-05-02T01:52:52.342Z,101020.94
2023-05-02T01:56:56.417Z,101026.81
2023-05-02T02:01:00.999Z,101030.00
2023-05-02T02:05:07.040Z,101025.59
2023-05-02T02:09:10.143Z,101039.31
2023-05-02T02:13:17.287Z,101034.91
2023-05-02T02:17:25.619Z,101034.91
2023-05-02T02:21:31.406Z,101047.09
2023-05-02T02:25:35.150Z,101049.22
2023-05-02T02:29:39.091Z,101044.81
2023-05-02T02:33:42.349Z,101045.41
2023-05-02T02:37:49.931Z,101048.19
2023-05-02T02:42:02.449Z,101053.00
2023-05-02T02:46:14.579Z,101053.00
2023-05-02T02:50:21.654Z,101048.19
2023-05-02T02:54:31.345Z,101042.94
2023-05-02T02:58:40.705Z,101058.44
2023-05-02T03:02:44.881Z,101055.91
2023-05-02T03:06:48.252Z,101061.84
2023-05-02T03:10:53.003Z,101062.66
2023-05-02T03:15:00.720Z,101060.19
2023-05-02T03:19:05.378Z,101063.97
2023-05-02T03:23:08.968Z,101064.34
2023-05-02T03:27:13.353Z,101059.34
2023-05-02T03:31:18.367Z,101047.94
2023-05-02T03:35:21.633Z,101050.50
2023-05-02T03:39:26.946Z,101055.31
2023-05-02T03:43:31.396Z,101061.03
2023-05-02T03:47:34.853Z,101057.19
2023-05-02T03:51:37.939Z,101054.28
2023-05-02T03:55:41.194Z,101061.63
2023-05-02T03:59:48.213Z,101063.28
2023-05-02T04:04:01.079Z,101062.22
2023-05-02T04:08:08.067Z,101076.09
2023-05-02T04:12:11.434Z,101073.78
2023-05-02T04:16:19.942Z,101090.81
2023-05-02T04:20:23.000Z,101094.19
2023-05-02T04:24:28.838Z,101100.97
2023-05-02T04:28:33.131Z,101110.22
2023-05-02T04:32:39.349Z,101117.19
2023-05-02T04:36:42.762Z,101115.13
2023-05-02T04:40:51.151Z,101117.84
2023-05-02T04:44:56.571Z,101130.19
2023-05-02T04:49:00.981Z,101140.53
2023-05-02T04:53:03.966Z,101145.72
2023-05-02T04:57:10.233Z,101153.69
2023-05-02T05:01:18.240Z,101158.31
2023-05-02T05:05:24.205Z,101169.31
2023-05-02T05:09:27.476Z,101176.56
2023-05-02T05:13:30.747Z,101173.81
2023-05-02T05:17:34.067Z,101189.56
2023-05-02T05:21:39.872Z,101199.56
2023-05-02T05:25:45.791Z,101207.50
2023-05-02T05:29:51.546Z,101218.34
2023-05-02T05:33:55.151Z,101226.91
2023-05-02T05:38:00.613Z,101237.28
2023-05-02T05:42:06.101Z,101231.97
2023-05-02T05:46:09.417Z,101238.03
2023-05-02T05:50:13.920Z,101247.88
2023-05-02T05:54:19.480Z,101252.63
2023-05-02T05:58:22.474Z,101258.38
2023-05-02T06:02:27.090Z,101264.19
2023-05-02T06:06:31.865Z,101267.19
2023-05-02T06:10:36.241Z,101271.28
2023-05-02T06:14:39.709Z,101258.34
2023-05-02T06:18:42.702Z,101267.47
2023-05-02T06:22:45.516Z,101263.03
2023-05-02T06:26:51.741Z,101254.94
2023-05-02T06:30:58.137Z,101243.63
2023-05-02T06:35:01.033Z,101255.56
2023-05-02T06:39:04.086Z,101252.31
2023-05-02T06:43:08.445Z,101248.31
2023-05-02T06:47:11.516Z,101251.06
2023-05-02T06:51:15.264Z,101255.28
2023-05-02T06:55:18.349Z,101249.88
2023-05-02T06:59:22.468Z,101251.94
2023-05-02T07:03:25.316Z,101257.09
2023-05-02T07:07:28.366Z,101255.97
2023-05-02T07:11:31.220Z,101260.41
2023-05-02T07:15:35.526Z,101256.38
2023-05-02T07:19:38.399Z,101259.25
2023-05-02T07:23:41.339Z,101268.00
2023-05-02T07:27:44.286Z,101276.59
2023-05-02T07:31:48.587Z,101276.84
2023-05-02T07:35:51.584Z,101282.09
2023-05-02T07:39:54.542Z,101289.81
2023-05-02T07:43:57.724Z,101300.78
2023-05-02T07:48:01.995Z,101308.88
2023-05-02T07:52:05.788Z,101307.91
2023-05-02T07:56:09.549Z,101308.06
2023-05-02T08:00:12.784Z,101308.53
2023-05-02T08:04:20.032Z,101310.53
2023-05-02T08:08:23.310Z,101310.78
2023-05-02T08:12:26.181Z,101321.94
2023-05-02T08:16:29.098Z,101330.09
2023-05-02T08:20:33.326Z,101338.97
2023-05-02T08:24:36.199Z,101340.31
2023-05-02T08:28:39.095Z,101339.34
2023-05-02T08:32:41.962Z,101341.84
2023-05-02T08:36:46.184Z,101345.78
2023-05-02T08:40:49.226Z,101345.63
2023-05-02T08:44:52.580Z,101361.28
2023-05-02T08:48:59.041Z,101367.66
2023-05-02T08:53:04.620Z,101372.56
2023-05-02T08:57:07.753Z,101381.56
2023-05-02T09:01:11.894Z,101376.34
2023-05-02T09:05:20.434Z,101390.97
2023-05-02T09:09:25.007Z,101390.03
2023-05-02T09:13:35.723Z,101411.50
2023-05-02T09:17:42.553Z,101415.78
2023-05-02T09:21:45.455Z,101432.38
2023-05-02T09:25:49.730Z,101418.47
2023-05-02T09:29:52.563Z,101431.19
2023-05-02T09:33:57.007Z,101442.84
2023-05-02T09:37:59.935Z,101445.22
2023-05-02T09:42:04.549Z,101461.34
2023-05-02T09:46:08.291Z,101460.41
2023-05-02T09:50:11.609Z,101468.72
2023-05-02T09:54:14.510Z,101475.53
2023-05-02T09:58:25.741Z,101465.22
2023-05-02T10:02:31.496Z,101474.25
2023-05-02T10:06:34.659Z,101471.13
2023-05-02T10:10:38.285Z,101475.63
2023-05-02T10:14:45.846Z,101479.44
2023-05-02T10:18:49.419Z,101489.84
2023-05-02T10:22:52.928Z,101485.53
2023-05-02T10:26:56.717Z,101486.09
2023-05-02T10:31:02.393Z,101489.28
2023-05-02T10:35:06.383Z,101498.88
2023-05-02T10:39:09.595Z,101491.53
2023-05-02T10:43:16.258Z,101489.88
2023-05-02T10:47:21.517Z,101491.22
2023-05-02T10:51:28.588Z,101487.28
2023-05-02T10:55:31.583Z,101496.19
2023-05-02T10:59:35.989Z,101490.88
2023-05-02T11:03:59.093Z,101492.78
2023-05-02T11:08:23.287Z,101483.03
2023-05-02T11:12:45.508Z,101481.97
2023-05-02T11:17:07.386Z,101469.59
2023-05-02T11:21:31.912Z,101481.94
2023-05-02T11:25:36.578Z,101493.00
2023-05-02T11:29:56.748Z,101492.63
2023-05-02T11:34:00.089Z,101497.56
2023-05-02T11:38:05.673Z,101491.09
2023-05-02T11:42:08.582Z,101496.72
2023-05-02T11:46:11.865Z,101505.38
2023-05-02T11:50:15.105Z,101509.22
2023-05-02T11:54:21.449Z,101512.25
2023-05-02T11:58:25.646Z,101511.09
2023-05-02T12:02:38.675Z,101523.94
2023-05-02T12:06:55.226Z,101520.22
2023-05-02T12:10:59.697Z,101528.25
2023-05-02T12:15:05.085Z,101530.47
2023-05-02T12:19:08.112Z,101525.06
2023-05-02T12:23:11.443Z,101534.13
2023-05-02T12:27:16.437Z,101528.72
2023-05-02T12:31:19.948Z,101542.22
2023-05-02T12:35:23.922Z,101544.94
2023-05-02T12:39:35.708Z,101546.50
2023-05-02T12:43:46.135Z,101556.13
2023-05-02T12:47:49.228Z,101569.16
2023-05-02T12:51:55.794Z,101559.59
2023-05-02T12:56:03.210Z,101554.47
2023-05-02T13:00:11.216Z,101555.50
2023-05-02T13:04:14.250Z,101569.31
2023-05-02T13:08:17.245Z,101564.22
2023-05-02T13:12:20.115Z,101571.75
2023-05-02T13:16:24.414Z,101578.53
2023-05-02T13:20:27.388Z,101572.72
2023-05-02T13:24:30.259Z,101572.63
2023-05-02T13:28:33.613Z,101583.34
2023-05-02T13:32:37.927Z,101590.25
2023-05-02T13:36:46.381Z,101586.13
2023-05-02T13:40:49.727Z,101585.78
2023-05-02T13:44:52.765Z,101582.84
2023-05-02T13:48:57.176Z,101577.66
2023-05-02T13:53:00.119Z,101579.59
2023-05-02T13:57:04.281Z,101589.81
2023-05-02T14:01:08.066Z,101592.56
2023-05-02T14:05:12.846Z,101593.00
2023-05-02T14:09:17.100Z,101580.00
2023-05-02T14:13:20.095Z,101582.25
2023-05-02T14:17:25.219Z,101587.47
2023-05-02T14:21:29.533Z,101577.41
2023-05-02T14:25:32.416Z,101573.72
2023-05-02T14:29:35.242Z,101575.72
2023-05-02T14:33:38.118Z,101581.44
2023-05-02T14:37:45.125Z,101562.91
2023-05-02T14:41:48.462Z,101563.00
2023-05-02T14:45:51.400Z,101565.28
2023-05-02T14:49:54.325Z,101572.75
2023-05-02T14:53:58.593Z,101569.63
2023-05-02T14:58:01.449Z,101574.72
2023-05-02T15:02:04.395Z,101567.06
2023-05-02T15:06:07.475Z,101566.56
2023-05-02T15:10:12.201Z,101575.97
2023-05-02T15:14:15.067Z,101570.78
2023-05-02T15:18:18.111Z,101574.88
2023-05-02T15:22:22.334Z,101580.38
2023-05-02T15:26:26.721Z,101579.06
2023-05-02T15:30:29.587Z,101586.69
2023-05-02T15:34:32.413Z,101576.44
2023-05-02T15:38:39.341Z,101578.59
2023-05-02T15:42:43.617Z,101577.00
2023-05-02T15:46:47.171Z,101572.97
2023-05-02T15:50:50.244Z,101575.56
2023-05-02T15:54:53.164Z,101578.22
2023-05-02T15:58:57.383Z,101577.25
2023-05-02T16:03:01.933Z,101585.41
2023-05-02T16:07:06.597Z,101581.38
2023-05-02T16:11:09.490Z,101577.22
2023-05-02T16:15:13.778Z,101574.72
2023-05-02T16:19:17.956Z,101573.78
2023-05-02T16:23:22.251Z,101578.25
2023-05-02T16:27:25.160Z,101566.84
2023-05-02T16:31:29.463Z,101571.50
2023-05-02T16:35:32.349Z,101566.59
2023-05-02T16:39:35.220Z,101566.66
2023-05-02T16:43:38.665Z,101566.81
2023-05-02T16:47:43.289Z,101575.72
2023-05-02T16:51:48.994Z,101566.03
2023-05-02T16:55:52.058Z,101580.31
2023-05-02T16:59:54.966Z,101572.38
2023-05-02T17:03:59.295Z,101578.69
2023-05-02T17:08:02.288Z,101576.31
2023-05-02T17:12:05.400Z,101576.78
2023-05-02T17:16:08.740Z,101578.53
2023-05-02T17:20:13.344Z,101584.56
2023-05-02T17:24:16.250Z,101585.25
2023-05-02T17:28:21.121Z,101590.44
2023-05-02T17:32:24.175Z,101592.72
2023-05-02T17:36:28.414Z,101596.03
2023-05-02T17:40:31.335Z,101586.31
2023-05-02T17:44:36.237Z,101587.59
2023-05-02T17:48:39.103Z,101590.31
2023-05-02T17:52:43.308Z,101587.34
2023-05-02T17:56:46.253Z,101586.72
2023-05-02T18:00:49.110Z,101593.84
2023-05-02T18:04:52.062Z,101595.06
2023-05-02T18:08:56.398Z,101606.19
2023-05-02T18:12:59.331Z,101599.28
2023-05-02T18:17:02.220Z,101606.78
2023-05-02T18:21:06.187Z,101602.97
2023-05-02T18:25:10.898Z,101602.66
2023-05-02T18:29:13.945Z,101611.72
2023-05-02T18:33:16.834Z,101610.56
2023-05-02T18:37:19.773Z,101612.47
2023-05-02T18:41:24.423Z,101607.88
2023-05-02T18:45:28.424Z,101612.88
2023-05-02T18:49:31.285Z,101618.13
2023-05-02T18:53:34.225Z,101620.88
2023-05-02T18:57:38.462Z,101620.69
2023-05-02T19:01:41.643Z,101625.31
2023-05-02T19:05:45.667Z,101632.56
2023-05-02T19:09:48.518Z,101635.69
2023-05-02T19:13:53.170Z,101642.53
2023-05-02T19:17:56.099Z,101649.16
2023-05-02T19:21:59.059Z,101657.31
2023-05-02T19:26:01.998Z,101658.75
2023-05-02T19:30:09.285Z,101661.84
2023-05-02T19:34:12.234Z,101662.50
2023-05-02T19:38:15.104Z,101660.66
2023-05-02T19:42:18.962Z,101660.84
2023-05-02T19:46:24.214Z,101659.19
2023-05-02T19:50:27.368Z,101665.47
2023-05-02T19:54:30.697Z,101664.22
2023-05-02T19:58:33.676Z,101676.00
2023-05-02T20:02:38.115Z,101675.53
2023-05-02T20:06:41.103Z,101685.13
2023-05-02T20:10:44.368Z,101687.00
2023-05-02T20:14:47.203Z,101683.44
2023-05-02T20:18:52.961Z,101685.53
2023-05-02T20:22:56.576Z,101685.56
2023-05-02T20:26:59.464Z,101698.88
2023-05-02T20:31:02.823Z,101688.00
2023-05-02T20:35:07.640Z,101694.81
2023-05-02T20:39:12.181Z,101701.97
2023-05-02T20:43:19.035Z,101709.78
2023-05-02T20:47:22.295Z,101711.66
2023-05-02T20:51:28.271Z,101714.03
2023-05-02T20:55:31.400Z,101715.38
2023-05-02T20:59:34.277Z,101711.75
2023-05-02T21:03:41.249Z,101712.50
2023-05-02T21:07:45.694Z,101712.50
2023-05-02T21:11:48.552Z,101722.81
2023-05-02T21:15:51.469Z,101717.13
2023-05-02T21:19:55.992Z,101726.00
2023-05-02T21:24:00.222Z,101731.06
2023-05-02T21:28:03.136Z,101731.22
2023-05-02T21:32:06.615Z,101723.69
2023-05-02T21:36:09.868Z,101725.41
2023-05-02T21:40:14.848Z,101736.44
2023-05-02T21:44:17.869Z,101740.84
2023-05-02T21:48:21.210Z,101726.22
2023-05-02T21:52:24.082Z,101738.53
2023-05-02T21:56:28.344Z,101734.38
2023-05-02T22:00:32.138Z,101739.41
2023-05-02T22:04:35.090Z,101730.88
2023-05-02T22:08:38.260Z,101735.16
2023-05-02T22:12:42.554Z,101742.22
2023-05-02T22:16:45.440Z,101748.47
2023-05-02T22:20:48.470Z,101750.13
2023-05-02T22:24:51.726Z,101752.13
2023-05-02T22:28:56.263Z,101755.88
2023-05-02T22:32:59.146Z,101757.69
2023-05-02T22:37:02.320Z,101752.88
2023-05-02T22:41:06.617Z,101760.19
2023-05-02T22:45:12.338Z,101757.94
2023-05-02T22:49:15.881Z,101763.41
2023-05-02T22:53:21.651Z,101755.31
2023-05-02T22:57:25.229Z,101754.22
2023-05-02T23:01:29.966Z,101751.66
2023-05-02T23:05:32.837Z,101756.41
2023-05-02T23:09:35.723Z,101755.78
2023-05-02T23:13:38.612Z,101750.13
2023-05-02T23:17:43.241Z,101742.44
2023-05-02T23:21:46.164Z,101748.13
2023-05-02T23:25:49.052Z,101749.44
2023-05-02T23:29:52.131Z,101752.75
2023-05-02T23:33:57.145Z,101749.38
2023-05-02T23:38:00.257Z,101751.16
2023-05-02T23:42:04.568Z,101752.75
2023-05-02T23:46:07.901Z,101742.53
2023-05-02T23:50:12.577Z,101754.88
2023-05-02T23:54:16.084Z,101753.47
2023-05-02T23:58:18.946Z,101754.91
